Humidity-temperature Sensor

Selected Measurement Type: Relative Humidity

 
Relative Humidity [%]     6 entries per hour
Showing data from 11/6/2021 (00:00:00 Z) to 11/3/2021 (00:01:00 Z)
Previous Next [ Day | 3-Days | 7-Days ]
First Last
Prev [ Day | 3-Days | 7-Days ] Next
First Last

Start Time:     :
End Time:     :     
Time (in GMT) :00 :50 :40 :30 :20 :10
Previous Next [ Day | 3-Days | 7-Days ]
First Last
Prev [ Day | 3-Days | 7-Days ] Next
First Last


123 => good data
MM => data is determined as missing
-- => data not received/configured
Back to Top Back to Top
11/6/2021 00:00 to 23:10 97.56 97.63 97.77 98.27 98.06 97.42
11/5/2021 23:00 to 22:10 96.09 94.16 92.41 93.01 92.95 91.16
11/5/2021 22:00 to 21:10 88.29 85.82 85.63 85.51 85.59 86.11
11/5/2021 21:00 to 20:10 86.40 85.65 85.53 86.03 85.92 85.05
11/5/2021 20:00 to 19:10 84.62 85.26 87.15 89.87 84.47 86.09
11/5/2021 19:00 to 18:10 88.86 89.85 89.81 90.27 91.00 91.37
11/5/2021 18:00 to 17:10 88.88 85.34 84.14 81.79 82.62 82.20
11/5/2021 17:00 to 16:10 83.74 84.22 83.64 84.26 86.88 87.05
11/5/2021 16:00 to 15:10 87.32 85.92 82.60 81.58 80.60 80.63
11/5/2021 15:00 to 14:10 83.37 84.20 80.21 79.96 81.69 82.29
11/5/2021 14:00 to 13:10 83.35 83.95 84.45 82.06 77.34 75.74
11/5/2021 13:00 to 12:10 74.91 76.12 76.26 72.04 72.94 74.54
11/5/2021 12:00 to 11:10 75.30 75.26 77.65 83.04 84.70 85.74
11/5/2021 11:00 to 10:10 85.72 85.70 86.17 85.32 84.43 83.47
11/5/2021 10:00 to 9:10 84.05 82.95 78.55 72.02 68.88 74.18
11/5/2021 09:00 to 8:10 76.80 78.36 82.77 84.30 84.01 84.32
11/5/2021 08:00 to 7:10 84.05 84.03 84.43 84.66 85.47 86.44
11/5/2021 07:00 to 6:10 86.74 85.84 84.89 84.59 84.41 83.35
11/5/2021 06:00 to 5:10 83.89 83.97 83.93 83.87 82.62 82.81
11/5/2021 05:00 to 4:10 82.23 81.87 81.17 80.63 79.46 79.57
11/5/2021 04:00 to 3:10 79.88 79.86 80.04 79.32 79.63 79.54
11/5/2021 03:00 to 2:10 78.71 79.09 79.44 78.48 79.02 78.67
11/5/2021 02:00 to 1:10 79.00 79.50 79.27 79.34 79.05 78.71
11/5/2021 01:00 to 0:10 78.05 79.36 79.77 78.40 78.61 78.01
11/5/2021 00:00 to 23:10 77.80 78.01 78.36 79.54 80.29 81.23
11/4/2021 23:00 to 22:10 81.27 81.08 81.33 81.89 82.04 82.75
11/4/2021 22:00 to 21:10 82.77 82.18 82.14 81.87 81.48 81.44
11/4/2021 21:00 to 20:10 80.56 79.42 79.17 78.73 78.61 79.79
11/4/2021 20:00 to 19:10 82.06 80.38 79.13 77.84 77.26 77.61
11/4/2021 19:00 to 18:10 77.55 77.78 78.09 77.99 78.26 78.15
11/4/2021 18:00 to 17:10 78.59 79.07 79.94 78.34 76.34 75.74
11/4/2021 17:00 to 16:10 77.40 77.28 77.65 77.38 77.47 78.73
11/4/2021 16:00 to 15:10 78.80 79.65 79.86 80.44 81.48 80.56
11/4/2021 15:00 to 14:10 81.08 79.75 78.21 77.90 79.42 79.98
11/4/2021 14:00 to 13:10 80.42 80.44 80.96 82.52 82.83 82.00
11/4/2021 13:00 to 12:10 82.14 82.83 81.98 81.56 80.52 80.36
11/4/2021 12:00 to 11:10 80.04 80.40 80.38 78.69 75.51 76.55
11/4/2021 11:00 to 10:10 79.13 79.11 80.38 79.50 80.19 80.96
11/4/2021 10:00 to 9:10 82.91 83.68 82.91 83.93 84.47 84.32
11/4/2021 09:00 to 8:10 84.10 83.43 83.20 83.26 83.49 85.57
11/4/2021 08:00 to 7:10 85.34 85.45 84.95 84.74 84.10 83.62
11/4/2021 07:00 to 6:10 83.43 83.45 83.99 83.58 82.54 81.85
11/4/2021 06:00 to 5:10 82.08 82.52 82.50 82.60 83.08 83.83
11/4/2021 05:00 to 4:10 84.26 83.47 82.95 83.12 82.66 82.14
11/4/2021 04:00 to 3:10 82.54 82.47 81.02 82.43 84.62 84.10
11/4/2021 03:00 to 2:10 83.66 83.43 83.22 83.41 83.95 84.03
11/4/2021 02:00 to 1:10 85.57 86.13 85.68 85.20 85.61 84.39
11/4/2021 01:00 to 0:10 82.81 82.56 82.29 81.54 81.75 81.29
11/4/2021 00:00 to 23:10 80.98 80.90 80.65 80.87 81.37 81.35
11/3/2021 23:00 to 22:10 80.94 81.02 81.50 81.12 80.81 81.04
11/3/2021 22:00 to 21:10 81.12 82.16 83.14 83.43 83.37 82.70
11/3/2021 21:00 to 20:10 83.45 83.06 82.87 83.81 84.22 84.18
11/3/2021 20:00 to 19:10 84.62 84.72 84.30 84.82 85.34 84.43
11/3/2021 19:00 to 18:10 84.45 84.47 84.49 84.39 84.76 84.51
11/3/2021 18:00 to 17:10 84.93 85.05 84.84 84.78 85.24 85.97
11/3/2021 17:00 to 16:10 86.57 86.55 86.74 86.90 86.78 87.40
11/3/2021 16:00 to 15:10 86.76 87.15 87.13 87.11 87.03 87.67
11/3/2021 15:00 to 14:10 88.13 87.73 88.29 88.63 89.04 89.65
11/3/2021 14:00 to 13:10 89.98 89.62 90.66 91.10 91.25 92.41
11/3/2021 13:00 to 12:10 93.10 92.68 91.66 91.22 91.68 91.68
11/3/2021 12:00 to 11:10 91.79 91.31 90.12 88.86 88.21 88.09
11/3/2021 11:00 to 10:10 87.96 88.11 88.02 87.92 87.94 87.69
11/3/2021 10:00 to 9:10 87.50 88.38 88.71 88.25 88.00 88.11
11/3/2021 09:00 to 8:10 88.48 88.02 87.67 87.36 87.23 87.61
11/3/2021 08:00 to 7:10 87.46 86.53 86.61 86.57 86.63 86.57
11/3/2021 07:00 to 6:10 87.40 87.07 87.17 87.26 87.46 87.07
11/3/2021 06:00 to 5:10 87.01 87.21 86.90 87.38 87.80 88.73
11/3/2021 05:00 to 4:10 88.48 88.15 87.80 87.32 86.82 87.07
11/3/2021 04:00 to 3:10 88.42 87.75 87.46 86.94 86.74 86.92
11/3/2021 03:00 to 2:10 87.30 87.96 88.32 88.17 88.79 88.88
11/3/2021 02:00 to 1:10 87.77 87.01 86.34 85.70 85.76 85.43
11/3/2021 01:00 to 0:10 86.20 87.28 87.98 88.29 88.34 88.34